createdAt,value
2022-12-01T00:01:19.929Z,95794.47
2022-12-01T00:03:48.037Z,95787.59
2022-12-01T00:06:17.087Z,95784.94
2022-12-01T00:09:01.591Z,95771.63
2022-12-01T00:11:29.296Z,95780.25
2022-12-01T00:13:56.911Z,95767.69
2022-12-01T00:16:24.542Z,95773.00
2022-12-01T00:18:52.962Z,95763.84
2022-12-01T00:21:22.516Z,95768.31
2022-12-01T00:23:54.381Z,95772.69
2022-12-01T00:26:22.980Z,95766.75
2022-12-01T00:28:51.342Z,95767.56
2022-12-01T00:31:19.064Z,95768.53
2022-12-01T00:33:46.828Z,95759.19
2022-12-01T00:36:14.431Z,95766.75
2022-12-01T00:38:42.486Z,95775.25
2022-12-01T00:41:11.404Z,95761.09
2022-12-01T00:43:39.689Z,95768.00
2022-12-01T00:46:07.361Z,95766.50
2022-12-01T00:48:34.969Z,95764.84
2022-12-01T00:51:03.201Z,95758.97
2022-12-01T00:53:31.171Z,95765.00
2022-12-01T00:55:58.877Z,95765.00
2022-12-01T00:58:29.080Z,95762.56
2022-12-01T01:01:00.872Z,95766.59
2022-12-01T01:03:29.488Z,95772.47
2022-12-01T01:05:57.129Z,95771.81
2022-12-01T01:08:24.732Z,95782.00
2022-12-01T01:10:52.456Z,95779.50
2022-12-01T01:13:20.100Z,95783.16
2022-12-01T01:15:58.682Z,95780.84
2022-12-01T01:18:26.794Z,95785.34
2022-12-01T01:20:57.585Z,95780.34
2022-12-01T01:23:25.222Z,95778.81
2022-12-01T01:25:52.875Z,95778.91
2022-12-01T01:28:20.937Z,95773.09
2022-12-01T01:30:49.979Z,95780.72
2022-12-01T01:33:17.627Z,95771.34
2022-12-01T01:35:45.246Z,95772.25
2022-12-01T01:38:12.913Z,95778.81
2022-12-01T01:40:44.154Z,95784.13
2022-12-01T01:43:16.800Z,95775.50
2022-12-01T01:45:44.686Z,95778.81
2022-12-01T01:48:14.738Z,95778.81
2022-12-01T01:50:42.726Z,95779.81
2022-12-01T01:53:15.933Z,95771.28
2022-12-01T01:55:43.952Z,95769.69
2022-12-01T01:58:12.317Z,95782.91
2022-12-01T02:00:43.434Z,95781.41
2022-12-01T02:03:16.687Z,95770.38
2022-12-01T02:05:48.135Z,95772.09
2022-12-01T02:08:15.844Z,95761.97
2022-12-01T02:10:59.529Z,95751.84
2022-12-01T02:13:34.605Z,95753.56
2022-12-01T02:16:14.662Z,95763.03
2022-12-01T02:18:52.810Z,95756.84
2022-12-01T02:21:36.693Z,95749.88
2022-12-01T02:24:43.563Z,95756.84
2022-12-01T02:27:27.279Z,95757.81
2022-12-01T02:30:10.866Z,95764.69
2022-12-01T02:32:49.780Z,95761.00
2022-12-01T02:35:23.645Z,95754.94
2022-12-01T02:38:04.178Z,95757.75
2022-12-01T02:40:34.989Z,95751.16
2022-12-01T02:43:09.521Z,95752.06
2022-12-01T02:45:44.827Z,95750.09
2022-12-01T02:48:18.790Z,95742.63
2022-12-01T02:50:47.621Z,95752.22
2022-12-01T02:53:19.633Z,95746.03
2022-12-01T02:55:52.479Z,95745.19
2022-12-01T02:58:20.396Z,95742.63
2022-12-01T03:01:02.334Z,95738.09
2022-12-01T03:03:43.876Z,95746.03
2022-12-01T03:06:20.351Z,95741.03
2022-12-01T03:08:53.674Z,95735.88
2022-12-01T03:11:35.392Z,95745.19
2022-12-01T03:14:16.822Z,95741.78
2022-12-01T03:16:51.008Z,95746.19
2022-12-01T03:19:30.447Z,95742.16
2022-12-01T03:22:03.235Z,95736.59
2022-12-01T03:24:33.634Z,95740.22
2022-12-01T03:27:03.752Z,95733.31
2022-12-01T03:29:39.850Z,95737.88
2022-12-01T03:32:14.871Z,95739.19
2022-12-01T03:34:47.353Z,95734.81
2022-12-01T03:37:20.604Z,95734.00
2022-12-01T03:39:49.132Z,95738.91
2022-12-01T03:42:22.012Z,95736.78
2022-12-01T03:44:55.231Z,95743.00
2022-12-01T03:47:25.412Z,95743.13
2022-12-01T03:49:55.604Z,95747.50
2022-12-01T03:52:35.536Z,95744.41
2022-12-01T03:55:12.871Z,95746.47
2022-12-01T03:57:47.106Z,95742.31
2022-12-01T04:00:16.930Z,95739.72
2022-12-01T04:02:45.838Z,95744.88
2022-12-01T04:05:14.842Z,95741.50
2022-12-01T04:07:42.531Z,95740.78
2022-12-01T04:10:10.626Z,95741.72
2022-12-01T04:12:37.398Z,95748.59
2022-12-01T04:15:08.010Z,95750.50
2022-12-01T04:17:35.925Z,95755.47
2022-12-01T04:20:06.452Z,95749.03
2022-12-01T04:22:35.480Z,95753.28
2022-12-01T04:25:03.503Z,95749.88
2022-12-01T04:27:31.106Z,95750.00
2022-12-01T04:29:58.811Z,95742.91
2022-12-01T04:32:26.687Z,95748.22
2022-12-01T04:34:54.408Z,95746.53
2022-12-01T04:37:22.021Z,95746.78
2022-12-01T04:39:51.325Z,95734.00
2022-12-01T04:42:19.210Z,95746.00
2022-12-01T04:44:46.879Z,95733.16
2022-12-01T04:47:14.551Z,95733.47
2022-12-01T04:49:42.219Z,95745.44
2022-12-01T04:52:09.806Z,95737.03
2022-12-01T04:54:37.426Z,95740.00
2022-12-01T04:57:06.503Z,95741.84
2022-12-01T04:59:34.146Z,95741.28
2022-12-01T05:02:02.763Z,95741.50
2022-12-01T05:04:31.190Z,95739.50
2022-12-01T05:06:58.846Z,95744.88
2022-12-01T05:09:26.475Z,95745.16
2022-12-01T05:11:54.050Z,95752.13
2022-12-01T05:14:22.986Z,95756.50
2022-12-01T05:16:50.647Z,95752.44
2022-12-01T05:19:36.063Z,95757.50
2022-12-01T05:22:03.737Z,95748.97
2022-12-01T05:24:31.310Z,95749.97
2022-12-01T05:26:58.915Z,95750.94
2022-12-01T05:29:27.879Z,95755.25
2022-12-01T05:31:55.614Z,95748.28
2022-12-01T05:34:23.259Z,95751.84
2022-12-01T05:36:50.866Z,95754.31
2022-12-01T05:39:18.495Z,95750.59
2022-12-01T05:41:46.070Z,95750.03
2022-12-01T05:44:13.765Z,95750.91
2022-12-01T05:46:42.715Z,95744.88
2022-12-01T05:49:10.294Z,95750.16
2022-12-01T05:51:37.956Z,95745.44
2022-12-01T05:54:05.838Z,95744.00
2022-12-01T05:56:33.428Z,95739.09
2022-12-01T05:59:01.154Z,95748.94
2022-12-01T06:01:28.865Z,95744.66
2022-12-01T06:03:57.930Z,95758.41
2022-12-01T06:06:25.604Z,95762.78
2022-12-01T06:08:53.174Z,95756.81
2022-12-01T06:11:20.824Z,95760.22
2022-12-01T06:13:48.430Z,95758.53
2022-12-01T06:16:16.142Z,95754.97
2022-12-01T06:18:43.821Z,95750.53
2022-12-01T06:21:12.806Z,95757.31
2022-12-01T06:23:40.428Z,95764.38
2022-12-01T06:26:08.046Z,95770.34
2022-12-01T06:28:35.931Z,95769.53
2022-12-01T06:31:03.920Z,95764.38
2022-12-01T06:33:31.837Z,95765.28
2022-12-01T06:36:02.095Z,95770.50
2022-12-01T06:38:34.156Z,95778.34
2022-12-01T06:41:02.875Z,95774.16
2022-12-01T06:43:30.930Z,95773.69
2022-12-01T06:46:02.182Z,95775.50
2022-12-01T06:48:30.260Z,95780.47
2022-12-01T06:50:58.563Z,95782.44
2022-12-01T06:53:27.316Z,95784.31
2022-12-01T06:56:01.002Z,95787.72
2022-12-01T06:58:29.040Z,95785.00
2022-12-01T07:00:57.368Z,95776.59
2022-12-01T07:03:25.420Z,95783.28
2022-12-01T07:05:58.482Z,95786.88
2022-12-01T07:08:26.126Z,95788.66
2022-12-01T07:11:06.177Z,95782.75
2022-12-01T07:13:34.327Z,95781.97
2022-12-01T07:16:03.065Z,95787.97
2022-12-01T07:18:31.144Z,95787.13
2022-12-01T07:21:00.606Z,95779.50
2022-12-01T07:23:28.243Z,95783.97
2022-12-01T07:25:59.858Z,95780.53
2022-12-01T07:28:29.786Z,95782.94
2022-12-01T07:31:03.390Z,95792.63
2022-12-01T07:33:41.179Z,95796.38
2022-12-01T07:39:25.313Z,95791.59
2022-12-01T07:41:53.081Z,95802.03
2022-12-01T07:44:25.006Z,95808.94
2022-12-01T07:46:55.985Z,95796.88
2022-12-01T07:49:27.634Z,95802.94
2022-12-01T07:51:55.528Z,95799.44
2022-12-01T07:54:23.387Z,95806.94
2022-12-01T07:56:51.076Z,95808.22
2022-12-01T07:59:18.740Z,95809.38
2022-12-01T08:01:47.756Z,95806.94
2022-12-01T08:04:15.744Z,95806.13
2022-12-01T08:06:43.446Z,95806.56
2022-12-01T08:09:11.655Z,95802.84
2022-12-01T08:11:39.319Z,95804.88
2022-12-01T08:14:06.998Z,95815.56
2022-12-01T08:16:34.960Z,95810.56
2022-12-01T08:19:04.027Z,95821.84
2022-12-01T08:21:31.723Z,95810.50
2022-12-01T08:23:59.840Z,95814.44
2022-12-01T08:26:28.459Z,95811.72
2022-12-01T08:28:56.391Z,95809.72
2022-12-01T08:31:26.683Z,95804.56
2022-12-01T08:33:55.396Z,95814.34
2022-12-01T08:36:24.657Z,95809.66
2022-12-01T08:38:54.277Z,95810.78
2022-12-01T08:41:22.336Z,95814.44
2022-12-01T08:43:57.998Z,95811.84
2022-12-01T08:46:27.539Z,95814.38
2022-12-01T08:48:57.308Z,95813.44
2022-12-01T08:51:27.265Z,95810.63
2022-12-01T08:53:57.489Z,95814.06
2022-12-01T08:56:27.468Z,95813.34
2022-12-01T08:58:55.948Z,95812.47
2022-12-01T09:01:25.557Z,95809.13
2022-12-01T09:04:05.444Z,95813.34
2022-12-01T09:06:36.365Z,95813.34
2022-12-01T09:09:04.209Z,95815.88
2022-12-01T09:11:31.933Z,95819.34
2022-12-01T09:14:00.310Z,95821.03
2022-12-01T09:16:28.348Z,95825.31
2022-12-01T09:18:56.472Z,95821.69
2022-12-01T09:21:26.014Z,95826.28
2022-12-01T09:23:55.416Z,95824.09
2022-12-01T09:26:23.868Z,95819.16
2022-12-01T09:28:54.854Z,95823.56
2022-12-01T09:31:30.981Z,95823.78
2022-12-01T09:34:00.509Z,95817.06
2022-12-01T09:36:28.788Z,95820.47
2022-12-01T09:38:58.292Z,95816.41
2022-12-01T09:41:30.140Z,95818.75
2022-12-01T09:44:06.092Z,95813.78
2022-12-01T09:46:38.110Z,95816.59
2022-12-01T09:49:09.635Z,95815.00
2022-12-01T09:51:37.536Z,95820.00
2022-12-01T09:54:12.526Z,95811.53
2022-12-01T09:56:45.318Z,95808.50
2022-12-01T09:59:20.505Z,95803.59
2022-12-01T10:01:52.360Z,95809.16
2022-12-01T10:04:26.006Z,95801.00
2022-12-01T10:07:00.100Z,95797.97
2022-12-01T10:09:36.971Z,95799.06
2022-12-01T10:12:14.744Z,95787.88
2022-12-01T10:14:45.911Z,95786.03
2022-12-01T10:17:23.924Z,95792.09
2022-12-01T10:19:58.584Z,95788.44
2022-12-01T10:22:55.672Z,95783.22
2022-12-01T10:25:27.294Z,95784.06
2022-12-01T10:28:25.415Z,95782.41
2022-12-01T10:30:54.291Z,95778.97
2022-12-01T10:33:25.299Z,95780.66
2022-12-01T10:35:53.429Z,95782.41
2022-12-01T10:38:27.888Z,95774.03
2022-12-01T10:41:00.914Z,95770.28
2022-12-01T10:43:36.231Z,95772.69
2022-12-01T10:46:17.850Z,95769.38
2022-12-01T10:48:55.165Z,95777.09
2022-12-01T10:51:23.818Z,95765.13
2022-12-01T10:53:59.008Z,95766.13
2022-12-01T10:56:28.529Z,95759.25
2022-12-01T10:58:58.912Z,95761.72
2022-12-01T11:01:31.495Z,95764.81
2022-12-01T11:04:04.181Z,95759.16
2022-12-01T11:06:33.554Z,95752.34
2022-12-01T11:09:03.777Z,95747.97
2022-12-01T11:11:35.395Z,95754.00
2022-12-01T11:14:06.797Z,95751.38
2022-12-01T11:16:38.791Z,95755.59
2022-12-01T11:19:25.361Z,95750.56
2022-12-01T11:21:57.210Z,95751.69
2022-12-01T11:24:43.373Z,95750.06
2022-12-01T11:27:19.091Z,95750.94
2022-12-01T11:29:49.768Z,95743.91
2022-12-01T11:32:21.731Z,95743.16
2022-12-01T11:34:53.251Z,95744.81
2022-12-01T11:37:23.190Z,95741.50
2022-12-01T11:39:52.817Z,95740.59
2022-12-01T11:42:28.176Z,95734.53
2022-12-01T11:44:58.205Z,95735.28
2022-12-01T11:47:27.576Z,95741.25
2022-12-01T11:49:57.679Z,95742.84
2022-12-01T11:52:31.788Z,95736.09
2022-12-01T11:55:13.006Z,95742.91
2022-12-01T11:57:43.690Z,95733.44
2022-12-01T12:00:15.500Z,95737.69
2022-12-01T12:02:54.898Z,95733.69
2022-12-01T12:05:57.682Z,95731.16
2022-12-01T12:08:48.041Z,95732.13
2022-12-01T12:11:20.288Z,95731.22
2022-12-01T12:14:13.705Z,95735.69
2022-12-01T12:16:58.982Z,95737.59
2022-12-01T12:20:06.764Z,95734.19
2022-12-01T12:22:41.775Z,95736.75
2022-12-01T12:25:23.892Z,95728.97
2022-12-01T12:28:07.197Z,95724.63
2022-12-01T12:30:50.059Z,95730.97
2022-12-01T12:33:36.584Z,95724.13
2022-12-01T12:36:14.939Z,95720.56
2022-12-01T12:38:53.451Z,95717.25
2022-12-01T12:41:29.736Z,95720.47
2022-12-01T12:44:10.635Z,95714.94
2022-12-01T12:46:50.402Z,95717.59
2022-12-01T12:49:32.956Z,95725.38
2022-12-01T12:52:08.691Z,95720.34
2022-12-01T12:54:46.279Z,95717.09
2022-12-01T12:57:23.933Z,95720.50
2022-12-01T12:59:57.799Z,95720.56
2022-12-01T13:02:33.987Z,95717.94
2022-12-01T13:05:08.956Z,95718.22
2022-12-01T13:07:42.258Z,95718.50
2022-12-01T13:10:17.688Z,95719.50
2022-12-01T13:12:56.111Z,95724.63
2022-12-01T13:15:23.962Z,95726.47
2022-12-01T13:17:56.073Z,95722.25
2022-12-01T13:20:28.800Z,95717.00
2022-12-01T13:22:58.715Z,95717.84
2022-12-01T13:25:31.015Z,95719.13
2022-12-01T13:28:01.394Z,95720.88
2022-12-01T13:30:29.303Z,95714.94
2022-12-01T13:33:04.201Z,95721.56
2022-12-01T13:35:34.947Z,95716.47
2022-12-01T13:38:24.767Z,95714.19
2022-12-01T13:41:23.929Z,95713.41
2022-12-01T13:44:01.388Z,95718.97
2022-12-01T13:46:33.020Z,95717.31
2022-12-01T13:49:04.137Z,95718.38
2022-12-01T13:52:16.509Z,95711.31
2022-12-01T13:55:02.731Z,95713.09
2022-12-01T13:57:32.906Z,95716.84
2022-12-01T14:00:22.282Z,95721.50
2022-12-01T14:03:47.899Z,95716.66
2022-12-01T14:06:27.860Z,95715.91
2022-12-01T14:09:00.448Z,95713.28
2022-12-01T14:11:30.782Z,95715.16
2022-12-01T14:14:01.317Z,95712.53
2022-12-01T14:16:47.916Z,95714.19
2022-12-01T14:19:31.097Z,95718.66
2022-12-01T14:22:02.083Z,95717.09
2022-12-01T14:24:35.392Z,95719.75
2022-12-01T14:27:04.203Z,95715.50
2022-12-01T14:29:34.378Z,95719.91
2022-12-01T14:32:26.482Z,95723.38
2022-12-01T14:34:57.020Z,95721.63
2022-12-01T14:37:34.360Z,95728.50
2022-12-01T14:40:07.755Z,95718.22
2022-12-01T14:42:55.511Z,95719.91
2022-12-01T14:45:27.621Z,95721.63
2022-12-01T14:48:02.370Z,95728.38
2022-12-01T14:50:42.116Z,95727.53
2022-12-01T14:53:22.515Z,95730.09
2022-12-01T14:55:54.283Z,95727.53
2022-12-01T14:58:24.971Z,95723.38
2022-12-01T15:00:59.097Z,95724.22
2022-12-01T15:03:32.122Z,95724.91
2022-12-01T15:05:59.883Z,95720.56
2022-12-01T15:09:04.045Z,95723.97
2022-12-01T15:11:25.247Z,95719.75
2022-12-01T15:13:54.581Z,95723.13
2022-12-01T15:16:24.011Z,95721.47
2022-12-01T15:18:52.411Z,95725.31
2022-12-01T15:21:23.261Z,95727.19
2022-12-01T15:24:00.355Z,95726.38
2022-12-01T15:26:30.785Z,95727.38
2022-12-01T15:29:17.338Z,95732.44
2022-12-01T15:31:47.614Z,95730.78
2022-12-01T15:34:18.167Z,95724.81
2022-12-01T15:36:46.466Z,95724.81
2022-12-01T15:39:18.916Z,95723.63
2022-12-01T15:41:48.704Z,95733.03
2022-12-01T15:44:22.476Z,95733.03
2022-12-01T15:46:50.124Z,95729.72
2022-12-01T15:49:19.979Z,95733.88
2022-12-01T15:51:48.922Z,95719.59
2022-12-01T15:54:21.831Z,95728.97
2022-12-01T15:56:53.964Z,95728.50
2022-12-01T15:59:32.284Z,95725.44
2022-12-01T16:02:01.188Z,95722.59
2022-12-01T16:04:32.143Z,95732.41
2022-12-01T16:07:02.973Z,95720.88
2022-12-01T16:09:35.798Z,95727.16
2022-12-01T16:12:19.574Z,95724.81
2022-12-01T16:14:52.509Z,95721.50
2022-12-01T16:17:20.763Z,95723.25
2022-12-01T16:19:48.410Z,95720.75
2022-12-01T16:22:19.559Z,95727.63
2022-12-01T16:24:52.819Z,95726.94
2022-12-01T16:27:25.587Z,95729.63
2022-12-01T16:29:55.906Z,95722.72
2022-12-01T16:32:27.843Z,95720.00
2022-12-01T16:34:55.476Z,95721.75
2022-12-01T16:37:23.319Z,95729.38
2022-12-01T16:39:52.242Z,95725.97
2022-12-01T16:42:21.663Z,95729.38
2022-12-01T16:44:50.519Z,95723.41
2022-12-01T16:47:20.371Z,95726.94
2022-12-01T16:49:48.388Z,95724.38
2022-12-01T16:52:43.281Z,95722.66
2022-12-01T16:55:05.986Z,95721.81
2022-12-01T16:57:33.571Z,95723.63
2022-12-01T17:00:01.242Z,95720.44
2022-12-01T17:02:28.952Z,95727.41
2022-12-01T17:04:56.710Z,95724.06
2022-12-01T17:07:24.353Z,95731.06
2022-12-01T17:09:52.030Z,95730.31
2022-12-01T17:12:25.177Z,95728.47
2022-12-01T17:14:53.079Z,95722.59
2022-12-01T17:17:20.710Z,95719.19
2022-12-01T17:19:48.309Z,95722.66
2022-12-01T17:22:15.894Z,95722.66
2022-12-01T17:24:43.497Z,95720.91
2022-12-01T17:27:11.165Z,95720.06
2022-12-01T17:29:45.757Z,95718.34
2022-12-01T17:32:14.260Z,95719.19
2022-12-01T17:34:42.195Z,95727.72
2022-12-01T17:37:09.834Z,95727.78
2022-12-01T17:39:37.758Z,95714.94
2022-12-01T17:42:05.442Z,95721.81
2022-12-01T17:44:33.200Z,95723.09
2022-12-01T17:47:02.236Z,95724.06
2022-12-01T17:49:29.889Z,95731.06
2022-12-01T17:51:57.648Z,95725.91
2022-12-01T17:54:25.270Z,95727.63
2022-12-01T17:56:52.848Z,95731.06
2022-12-01T17:59:20.477Z,95724.97
2022-12-01T18:01:48.324Z,95721.66
2022-12-01T18:04:17.329Z,95722.50
2022-12-01T18:06:53.593Z,95721.56
2022-12-01T18:09:22.032Z,95718.69
2022-12-01T18:11:49.750Z,95723.00
2022-12-01T18:14:17.736Z,95723.09
2022-12-01T18:16:45.830Z,95724.72
2022-12-01T18:19:13.674Z,95729.88
2022-12-01T18:21:42.773Z,95734.13
2022-12-01T18:24:10.920Z,95729.88
2022-12-01T18:26:41.053Z,95742.75
2022-12-01T18:29:12.572Z,95725.66
2022-12-01T18:31:40.924Z,95740.28
2022-12-01T18:34:09.148Z,95741.16
2022-12-01T18:36:38.352Z,95742.91
2022-12-01T18:39:09.955Z,95738.78
2022-12-01T18:41:37.660Z,95743.81
2022-12-01T18:44:05.982Z,95737.00
2022-12-01T18:46:35.001Z,95741.41
2022-12-01T18:49:02.977Z,95739.53
2022-12-01T18:51:31.488Z,95731.22
2022-12-01T18:54:00.945Z,95734.69
2022-12-01T18:56:30.745Z,95735.41
2022-12-01T18:59:00.083Z,95736.91
2022-12-01T19:01:32.035Z,95735.16
2022-12-01T19:04:00.977Z,95731.75
2022-12-01T19:06:29.865Z,95736.91
2022-12-01T19:09:00.471Z,95732.59
2022-12-01T19:11:30.249Z,95731.16
2022-12-01T19:13:57.876Z,95736.56
2022-12-01T19:16:25.930Z,95733.25
2022-12-01T19:18:53.733Z,95739.47
2022-12-01T19:21:21.566Z,95733.69
2022-12-01T19:23:49.896Z,95733.75
2022-12-01T19:26:20.246Z,95728.66
2022-12-01T19:28:49.718Z,95731.22
2022-12-01T19:31:20.831Z,95731.31
2022-12-01T19:33:48.630Z,95736.47
2022-12-01T19:36:18.512Z,95740.81
2022-12-01T19:38:46.859Z,95739.84
2022-12-01T19:41:15.425Z,95736.53
2022-12-01T19:43:43.242Z,95740.78
2022-12-01T19:46:14.619Z,95736.16
2022-12-01T19:48:42.488Z,95742.28
2022-12-01T19:51:17.307Z,95738.09
2022-12-01T19:53:44.986Z,95743.41
2022-12-01T19:56:12.624Z,95740.09
2022-12-01T19:58:40.636Z,95742.66
2022-12-01T20:01:10.373Z,95747.00
2022-12-01T20:03:40.738Z,95744.44
2022-12-01T20:06:10.399Z,95743.50
2022-12-01T20:08:38.391Z,95733.28
2022-12-01T20:11:06.673Z,95734.28
2022-12-01T20:13:35.327Z,95724.88
2022-12-01T20:16:04.304Z,95732.38
2022-12-01T20:18:32.625Z,95723.84
2022-12-01T20:21:06.754Z,95730.81
2022-12-01T20:23:34.978Z,95738.59
2022-12-01T20:26:03.340Z,95743.50
2022-12-01T20:28:31.441Z,95737.50
2022-12-01T20:30:59.714Z,95735.78
2022-12-01T20:33:30.104Z,95736.75
2022-12-01T20:35:57.815Z,95740.19
2022-12-01T20:38:27.840Z,95735.69
2022-12-01T20:40:55.788Z,95740.03
2022-12-01T20:43:23.456Z,95740.63
2022-12-01T20:45:51.338Z,95735.91
2022-12-01T20:48:19.131Z,95732.84
2022-12-01T20:50:46.822Z,95737.22
2022-12-01T20:53:14.772Z,95734.78
2022-12-01T20:55:43.878Z,95737.50
2022-12-01T20:58:11.772Z,95739.28
2022-12-01T21:00:42.776Z,95740.28
2022-12-01T21:03:10.716Z,95736.00
2022-12-01T21:05:40.504Z,95735.13
2022-12-01T21:08:10.180Z,95733.44
2022-12-01T21:10:38.698Z,95736.00
2022-12-01T21:13:37.429Z,95725.72
2022-12-01T21:16:12.431Z,95724.13
2022-12-01T21:19:01.691Z,95734.44
2022-12-01T21:21:30.893Z,95730.88
2022-12-01T21:24:12.009Z,95721.41
2022-12-01T21:26:42.041Z,95723.09
2022-12-01T21:29:19.870Z,95723.34
2022-12-01T21:31:49.707Z,95723.25
2022-12-01T21:34:20.003Z,95721.31
2022-12-01T21:36:49.107Z,95723.09
2022-12-01T21:39:18.378Z,95718.84
2022-12-01T21:41:45.983Z,95719.75
2022-12-01T21:44:17.369Z,95724.06
2022-12-01T21:46:45.509Z,95727.63
2022-12-01T21:49:16.535Z,95726.72
2022-12-01T21:51:44.791Z,95720.75
2022-12-01T21:54:14.858Z,95720.50
2022-12-01T21:56:42.512Z,95717.00
2022-12-01T21:59:17.991Z,95721.25
2022-12-01T22:01:45.774Z,95721.16
2022-12-01T22:04:17.508Z,95725.47
2022-12-01T22:06:48.167Z,95716.91
2022-12-01T22:09:23.643Z,95719.50
2022-12-01T22:11:54.631Z,95714.44
2022-12-01T22:14:25.604Z,95719.25
2022-12-01T22:16:57.199Z,95708.16
2022-12-01T22:19:29.674Z,95708.22
2022-12-01T22:22:18.604Z,95709.88
2022-12-01T22:24:47.879Z,95704.00
2022-12-01T22:27:27.016Z,95711.72
2022-12-01T22:30:02.407Z,95712.47
2022-12-01T22:32:36.023Z,95710.88
2022-12-01T22:35:32.422Z,95702.41
2022-12-01T22:38:22.944Z,95701.47
2022-12-01T22:40:56.504Z,95706.63
2022-12-01T22:43:27.764Z,95705.81
2022-12-01T22:46:11.239Z,95695.59
2022-12-01T22:48:41.104Z,95694.00
2022-12-01T22:51:30.209Z,95697.50
2022-12-01T22:54:01.379Z,95687.31
2022-12-01T22:56:33.261Z,95687.31
2022-12-01T22:59:01.028Z,95689.88
2022-12-01T23:01:33.207Z,95686.38
2022-12-01T23:04:21.328Z,95682.16
2022-12-01T23:07:07.987Z,95681.13
2022-12-01T23:09:38.735Z,95681.97
2022-12-01T23:12:21.798Z,95679.34
2022-12-01T23:14:51.824Z,95673.34
2022-12-01T23:17:25.386Z,95678.41
2022-12-01T23:19:54.701Z,95674.94
2022-12-01T23:22:22.322Z,95667.97
2022-12-01T23:24:50.133Z,95672.19
2022-12-01T23:27:18.949Z,95666.97
2022-12-01T23:29:46.679Z,95669.53
2022-12-01T23:32:14.483Z,95667.03
2022-12-01T23:34:43.447Z,95665.38
2022-12-01T23:37:30.265Z,95663.72
2022-12-01T23:39:58.048Z,95658.66
2022-12-01T23:42:25.711Z,95656.97
2022-12-01T23:44:53.998Z,95656.97
2022-12-01T23:47:24.985Z,95654.50
2022-12-01T23:50:02.874Z,95649.44
2022-12-01T23:52:34.643Z,95651.19
2022-12-01T23:55:02.939Z,95645.09
2022-12-01T23:57:31.888Z,95643.47
